logo tempoitalia

Diretta Meteo Fergus Falls, Stati Uniti (USA)lunedì 31 agosto ore 01:35

Mappa
Sereno 22 °C Nuvoloso 24 Ore: T.min 20 T.max 29
Ponente Nord Km/h 0 Punto di rugiada: 22 °C Umidità: 100% Visibilità: 11 Km
Il sole sorge alle: 06:44 Il sole tramonta alle: 20:05
31 Agosto 2026 01:35 tempo osservato: Nuvoloso Nuvoloso 22 100 1006 vento: Nord N 0
31 Agosto 2026 01:15 tempo osservato: Poco Nuvoloso Poco Nuvoloso 23 100 1006 vento: Nord SE 11.1
31 Agosto 2026 00:55 tempo osservato: Poco Nuvoloso Poco Nuvoloso 23 100 1006 vento: Nord E/SE 14.8
31 Agosto 2026 00:35 tempo osservato: Sereno Sereno 23 100 1005 vento: Nord E/SE 18.5
31 Agosto 2026 00:15 tempo osservato: Sereno Sereno 23 100 1005 vento: Nord E/SE 24
30 Agosto 2026 23:55 tempo osservato: Sereno Sereno 23 100 1005 vento: Nord E/SE 20.3
30 Agosto 2026 23:35 tempo osservato: Sereno Sereno 23 100 1005 vento: Nord E/SE 22.2
30 Agosto 2026 23:15 tempo osservato: Sereno Sereno 23 100 1005 vento: Nord E/SE 16.7
30 Agosto 2026 22:55 tempo osservato: Sereno Sereno 23 100 1006 vento: Nord E/SE 20.3
30 Agosto 2026 22:35 tempo osservato: Sereno Sereno 24 100 1006 vento: Nord E 24
30 Agosto 2026 22:15 tempo osservato: Sereno Sereno 24 100 1007 vento: Nord E/SE 18.5
30 Agosto 2026 21:55 tempo osservato: Nuvoloso Nuvoloso 24 100 1007 vento: Nord E/SE 18.5
30 Agosto 2026 21:35 tempo osservato: Coperto Coperto 24 100 1007 vento: Nord E/SE 18.5
30 Agosto 2026 21:15 tempo osservato: Molto Nuvoloso Molto Nuvoloso 24 100 1006 vento: Nord E/SE 16.7
30 Agosto 2026 20:55 tempo osservato: Sereno Sereno 24 94 1006 vento: Nord E/SE 16.7
30 Agosto 2026 20:35 tempo osservato: Sereno Sereno 24 100 1005 vento: Nord E/SE 18.5
30 Agosto 2026 20:15 tempo osservato: Sereno Sereno 24 100 1005 vento: Nord E/SE 20.3
30 Agosto 2026 19:55 tempo osservato: Sereno Sereno 24 94 1006 vento: Nord E/SE 22.2
30 Agosto 2026 19:35 tempo osservato: Sereno Sereno 25 94 1006 vento: Nord E/SE 20.3
30 Agosto 2026 19:15 tempo osservato: Poco Nuvoloso Poco Nuvoloso 25 88 1006 vento: Nord SE 18.5
30 Agosto 2026 18:55 tempo osservato: Molto Nuvoloso Molto Nuvoloso 26 83 1006 vento: Nord E/SE 25.9
30 Agosto 2026 18:35 tempo osservato: Molto Nuvoloso Molto Nuvoloso 26 83 1006 vento: Nord SE 22.2
30 Agosto 2026 18:15 tempo osservato: Coperto Coperto 27 74 1006 vento: Nord SE 27.8
30 Agosto 2026 17:55 tempo osservato: Coperto Coperto 27 74 1006 vento: Nord SE 20.3
30 Agosto 2026 17:35 tempo osservato: Coperto Coperto 27 74 1006 vento: Nord SE 22.2
30 Agosto 2026 17:15 tempo osservato: Coperto Coperto 27 74 1006 vento: Nord SE 22.2
30 Agosto 2026 16:55 tempo osservato: Coperto Coperto 28 69 1006 vento: Nord SE 25.9
30 Agosto 2026 16:35 tempo osservato: Molto Nuvoloso Molto Nuvoloso 28 69 1006 vento: Nord SE 22.2
30 Agosto 2026 16:15 tempo osservato: Coperto Coperto 29 66 1006 vento: Nord E/SE 25.9
30 Agosto 2026 15:55 tempo osservato: Coperto Coperto 29 66 1007 vento: Nord E/SE 22.2
30 Agosto 2026 15:35 tempo osservato: Molto Nuvoloso Molto Nuvoloso 28 69 1007 vento: Nord SE 25.9
30 Agosto 2026 15:15 tempo osservato: Nuvoloso Nuvoloso 29 66 1007 vento: Nord E 25.9
30 Agosto 2026 14:55 tempo osservato: Poco Nuvoloso Poco Nuvoloso 28 69 1007 vento: Nord E 27.8
30 Agosto 2026 14:35 tempo osservato: Molto Nuvoloso Molto Nuvoloso 28 69 1007 vento: Nord E/SE 25.9
30 Agosto 2026 14:15 tempo osservato: Molto Nuvoloso Molto Nuvoloso 27 74 1008 vento: Nord E 25.9
30 Agosto 2026 13:55 tempo osservato: Nuvoloso Nuvoloso 28 69 1008 vento: Nord E/SE 25.9
30 Agosto 2026 13:35 tempo osservato: Molto Nuvoloso Molto Nuvoloso 27 74 1008 vento: Nord E/SE 22.2
30 Agosto 2026 13:15 tempo osservato: Sereno Sereno 27 74 1008 vento: Nord E 24
30 Agosto 2026 12:55 tempo osservato: Nuvoloso Nuvoloso 26 83 1008 vento: Nord E/SE 25.9
30 Agosto 2026 12:35 tempo osservato: Poco Nuvoloso Poco Nuvoloso 25 83 1008 vento: Nord E 24
30 Agosto 2026 12:15 tempo osservato: Nuvoloso Nuvoloso 25 88 1008 vento: Nord E/SE 29.6
30 Agosto 2026 11:55 tempo osservato: Molto Nuvoloso Molto Nuvoloso 25 88 1008 vento: Nord E/SE 24
30 Agosto 2026 11:35 tempo osservato: Coperto Coperto 24 88 1008 vento: Nord E 20.3
30 Agosto 2026 11:15 tempo osservato: Coperto Coperto 24 88 1008 vento: Nord E 29.6
30 Agosto 2026 10:55 tempo osservato: Coperto Coperto 24 88 1008 vento: Nord E 31.5
30 Agosto 2026 10:35 tempo osservato: Coperto Coperto 23 94 1008 vento: Nord E 27.8
30 Agosto 2026 10:15 tempo osservato: Coperto Coperto 23 94 1009 vento: Nord E 25.9
30 Agosto 2026 09:55 tempo osservato: Molto Nuvoloso Molto Nuvoloso 23 94 1008 vento: Nord E 25.9
30 Agosto 2026 09:35 tempo osservato: Molto Nuvoloso Molto Nuvoloso 22 100 1009 vento: Nord E 24
30 Agosto 2026 09:15 tempo osservato: Nuvoloso Nuvoloso 22 100 1009 vento: Nord E 22.2
30 Agosto 2026 08:55 tempo osservato: Poco Nuvoloso Poco Nuvoloso 22 100 1009 vento: Nord E 25.9
30 Agosto 2026 08:35 tempo osservato: Poco Nuvoloso Poco Nuvoloso 21 100 1009 vento: Nord E 20.3
30 Agosto 2026 08:15 tempo osservato: Poco Nuvoloso Poco Nuvoloso 21 100 1009 vento: Nord E 18.5
30 Agosto 2026 07:55 tempo osservato: Sereno Sereno 20 100 1009 vento: Nord E 16.7
30 Agosto 2026 07:35 tempo osservato: Foschia Foschia 20 100 1009 vento: Nord E/NE 14.8
30 Agosto 2026 07:15 tempo osservato: Poco Nuvoloso Poco Nuvoloso 20 100 1009 vento: Nord E 14.8
30 Agosto 2026 06:55 tempo osservato: Nuvoloso Nuvoloso 20 100 1009 vento: Nord E 18.5
30 Agosto 2026 06:35 tempo osservato: Pioggia Pioggia 20 100 1008 vento: Nord E 16.7
30 Agosto 2026 06:15 tempo osservato: Coperto Coperto 20 100 1008 vento: Nord E/NE 22.2
30 Agosto 2026 05:55 tempo osservato: Molto Nuvoloso Molto Nuvoloso 20 100 1008 vento: Nord E 20.3
30 Agosto 2026 05:35 tempo osservato: Sereno Sereno 20 100 1008 vento: Nord E 22.2
30 Agosto 2026 05:15 tempo osservato: Sereno Sereno 20 100 1008 vento: Nord E 20.3
30 Agosto 2026 04:55 tempo osservato: Pioggia Pioggia 20 100 1009 vento: Nord E/NE 16.7
30 Agosto 2026 04:35 tempo osservato: Molto Nuvoloso Molto Nuvoloso 21 100 1009 vento: Nord E 13
30 Agosto 2026 04:15 tempo osservato: Molto Nuvoloso Molto Nuvoloso 21 100 1009 vento: Nord E 13
30 Agosto 2026 03:55 tempo osservato: Poco Nuvoloso Poco Nuvoloso 21 100 1009 vento: Nord E 14.8
30 Agosto 2026 03:35 tempo osservato: Sereno Sereno 21 100 1009 vento: Nord E 16.7
30 Agosto 2026 03:15 tempo osservato: Sereno Sereno 21 100 1009 vento: Nord E 20.3
30 Agosto 2026 02:55 tempo osservato: Sereno Sereno 20 100 1009 vento: Nord E 18.5
30 Agosto 2026 02:35 tempo osservato: Nuvoloso Nuvoloso 21 100 1009 vento: Nord E 16.7
30 Agosto 2026 02:15 tempo osservato: Poco Nuvoloso Poco Nuvoloso 21 100 1009 vento: Nord E 16.7
30 Agosto 2026 01:55 tempo osservato: Sereno Sereno 21 100 1009 vento: Nord E 18.5
30 Agosto 2026 01:35 tempo osservato: Sereno Sereno 21 100 1009 vento: Nord E 14.8